Time;durP1;ratioP1;P1;durP2;ratioP2;P2;SDS_P1;SDS_P2;PMS_P1;PMS_P2;Temp;Humidity;BMP_temperature;BMP_pressure;BME280_temperature;BME280_humidity;BME280_pressure;Samples;Min_cycle;Max_cycle;Signal;HPM_P1;HPM_P2
2022/01/12 00:01:42;;;;;;;84.10;47.28;;;3.10;99.90;;;;;;5134081;27;20051;-75
2022/01/12 00:04:08;;;;;;;88.93;48.30;;;3.10;99.90;;;;;;5134643;27;20050;-76
2022/01/12 00:06:34;;;;;;;92.10;49.00;;;3.10;99.90;;;;;;5133425;27;20047;-75
2022/01/12 00:09:05;;;;;;;82.68;46.75;;;3.10;99.90;;;;;;5134603;27;20043;-75
2022/01/12 00:11:32;;;;;;;83.40;47.60;;;3.10;99.90;;;;;;5133418;27;20127;-75
2022/01/12 00:13:57;;;;;;;83.07;47.67;;;3.20;99.90;;;;;;5134046;27;20055;-76
2022/01/12 00:16:23;;;;;;;83.88;47.92;;;3.10;99.90;;;;;;5133570;27;20043;-75
2022/01/12 00:18:49;;;;;;;87.05;48.65;;;3.10;99.90;;;;;;5134454;27;20091;-75
2022/01/12 00:21:15;;;;;;;94.07;48.85;;;3.10;99.90;;;;;;5133335;27;20046;-75
2022/01/12 00:23:41;;;;;;;88.93;48.60;;;3.10;99.90;;;;;;5133437;27;20506;-75
2022/01/12 00:26:11;;;;;;;91.05;49.60;;;3.10;99.90;;;;;;5133778;27;20129;-75
2022/01/12 00:34:29;;;;;;;91.50;49.97;;;3.10;99.90;;;;;;5069861;28;20546;-75
2022/01/12 00:36:55;;;;;;;96.60;49.53;;;3.10;99.90;;;;;;5058093;28;20052;-75
2022/01/12 00:39:22;;;;;;;91.32;48.25;;;3.10;99.90;;;;;;5079980;28;20275;-71
2022/01/12 00:41:48;;;;;;;91.47;48.58;;;3.10;99.90;;;;;;5130974;27;20554;-75
2022/01/12 00:44:23;;;;;;;86.80;48.42;;;3.10;99.90;;;;;;5133822;27;20058;-75
2022/01/12 00:46:53;;;;;;;87.15;49.17;;;3.10;99.90;;;;;;5133467;27;20043;-75
2022/01/12 00:49:20;;;;;;;86.47;47.10;;;3.10;99.90;;;;;;5133947;27;20039;-75
2022/01/12 00:51:47;;;;;;;83.93;48.10;;;3.10;99.90;;;;;;5132947;27;20065;-75
2022/01/12 00:54:13;;;;;;;86.68;48.50;;;3.10;99.90;;;;;;5132815;27;20043;-75
2022/01/12 00:56:38;;;;;;;81.70;46.22;;;3.20;99.90;;;;;;5131327;27;20053;-75
2022/01/12 00:59:04;;;;;;;85.18;46.78;;;3.20;99.90;;;;;;5133728;27;20039;-76
2022/01/12 01:01:32;;;;;;;80.18;47.15;;;3.10;99.90;;;;;;5132851;27;20131;-74
2022/01/12 01:03:57;;;;;;;83.57;46.25;;;3.20;99.90;;;;;;5133698;27;20050;-75
2022/01/12 01:06:23;;;;;;;83.60;47.53;;;3.20;99.90;;;;;;5133299;27;20126;-76
2022/01/12 01:08:51;;;;;;;78.68;46.13;;;3.20;99.90;;;;;;5133017;27;20130;-75
2022/01/12 01:11:18;;;;;;;79.95;46.90;;;3.10;99.90;;;;;;5132350;27;20043;-75
2022/01/12 01:13:56;;;;;;;80.53;46.30;;;3.10;99.90;;;;;;5131409;28;20047;-75
2022/01/12 01:16:29;;;;;;;79.07;46.83;;;3.20;99.90;;;;;;5133024;27;20039;-76
2022/01/12 01:27:10;;;;;;;79.22;47.15;;;3.20;99.90;;;;;;5132464;27;20059;-74
2022/01/12 01:29:36;;;;;;;74.03;45.40;;;3.20;99.90;;;;;;5116050;28;20043;-74
2022/01/12 01:32:02;;;;;;;75.35;45.97;;;3.10;99.90;;;;;;5135417;27;20387;-76
2022/01/12 01:34:28;;;;;;;82.05;49.10;;;3.20;99.90;;;;;;5137645;27;20101;-75
2022/01/12 01:36:56;;;;;;;73.22;45.85;;;3.20;99.90;;;;;;5136195;27;20067;-75
2022/01/12 01:39:25;;;;;;;75.63;47.03;;;3.20;99.90;;;;;;5137641;27;20441;-75
2022/01/12 01:42:06;;;;;;;77.57;46.83;;;3.20;99.90;;;;;;5136569;27;20468;-75
2022/01/12 01:55:18;;;;;;;79.55;47.28;;;3.20;99.90;;;;;;5137020;27;20043;-75
2022/01/12 01:57:44;;;;;;;79.18;47.67;;;3.20;99.90;;;;;;5136409;27;20373;-75
2022/01/12 02:00:18;;;;;;;77.53;46.92;;;3.20;99.90;;;;;;5136556;27;20531;-76
2022/01/12 02:02:45;;;;;;;83.20;48.88;;;3.20;99.90;;;;;;5136524;27;20381;-75
2022/01/12 02:05:11;;;;;;;75.97;47.78;;;3.20;99.90;;;;;;5136731;27;20043;-76
2022/01/12 02:07:37;;;;;;;77.90;46.67;;;3.20;99.90;;;;;;5136301;27;20039;-75
2022/01/12 02:10:03;;;;;;;75.00;46.95;;;3.20;99.90;;;;;;5136093;27;20039;-75
2022/01/12 02:12:30;;;;;;;72.88;46.17;;;3.20;99.90;;;;;;5136921;27;20089;-76
2022/01/12 02:14:58;;;;;;;79.95;46.78;;;3.30;99.90;;;;;;5136081;27;20043;-75
2022/01/12 02:17:39;;;;;;;79.65;47.58;;;3.30;99.90;;;;;;5136451;27;20047;-75
2022/01/12 02:36:26;;;;;;;91.20;51.15;;;3.30;99.90;;;;;;5136155;27;20080;-75
2022/01/12 02:41:39;;;;;;;98.90;50.83;;;3.40;99.90;;;;;;5135822;27;20051;-75
2022/01/12 02:54:42;;;;;;;125.72;60.03;;;3.30;99.90;;;;;;5134633;27;20515;-71
2022/01/12 02:57:08;;;;;;;125.15;58.08;;;3.30;99.90;;;;;;5135931;27;20047;-76
2022/01/12 02:59:34;;;;;;;143.05;60.40;;;3.30;99.90;;;;;;5134685;27;20097;-75
2022/01/12 03:04:26;;;;;;;173.82;64.63;;;3.40;99.90;;;;;;5135952;27;20400;-75
2022/01/12 03:06:52;;;;;;;145.10;60.00;;;3.40;99.90;;;;;;5135217;27;20065;-75
2022/01/12 03:09:18;;;;;;;148.23;61.33;;;3.40;99.90;;;;;;5135710;27;20047;-75
2022/01/12 03:11:44;;;;;;;161.88;62.33;;;3.40;99.90;;;;;;5135116;27;20031;-71
2022/01/12 03:14:10;;;;;;;149.45;60.42;;;3.40;99.90;;;;;;5135428;27;20051;-75
2022/01/12 03:16:36;;;;;;;164.27;62.53;;;3.40;99.90;;;;;;5134926;27;20458;-75
2022/01/12 03:19:03;;;;;;;168.55;61.97;;;3.40;99.90;;;;;;5134950;27;20192;-75
2022/01/12 03:21:31;;;;;;;163.60;62.03;;;3.40;99.90;;;;;;5135290;27;20050;-75
2022/01/12 03:23:58;;;;;;;162.63;61.97;;;3.50;99.90;;;;;;5134584;27;20047;-75
2022/01/12 03:26:27;;;;;;;183.60;65.53;;;3.40;99.90;;;;;;5134234;27;20389;-75
2022/01/12 03:28:54;;;;;;;169.00;64.22;;;3.50;99.90;;;;;;5134824;27;20088;-75
2022/01/12 03:31:28;;;;;;;193.88;65.30;;;3.50;99.90;;;;;;5134190;27;20117;-75
2022/01/12 03:33:59;;;;;;;176.85;62.33;;;3.50;99.90;;;;;;5134154;27;20070;-75
2022/01/12 03:38:54;;;;;;;186.30;65.82;;;3.50;99.90;;;;;;5134678;27;20058;-75
2022/01/12 03:41:20;;;;;;;164.65;63.30;;;3.60;99.90;;;;;;5134569;27;20042;-75
2022/01/12 03:43:46;;;;;;;166.93;63.85;;;3.50;99.90;;;;;;5149145;27;20553;-76
2022/01/12 03:46:13;;;;;;;182.35;65.95;;;3.50;99.90;;;;;;5125421;27;20055;-75
2022/01/12 03:48:39;;;;;;;170.90;65.20;;;3.50;99.90;;;;;;5133889;27;20112;-75
2022/01/12 03:51:04;;;;;;;162.27;64.35;;;3.50;99.90;;;;;;5133393;27;20043;-75
2022/01/12 03:53:30;;;;;;;178.15;67.10;;;3.50;99.90;;;;;;5134154;27;20441;-75
2022/01/12 03:55:56;;;;;;;229.38;71.50;;;3.40;99.90;;;;;;5154903;27;20043;-75
2022/01/12 03:58:22;;;;;;;218.38;70.10;;;3.50;99.90;;;;;;5135080;27;20050;-75
2022/01/12 04:00:47;;;;;;;176.65;66.93;;;3.50;99.90;;;;;;5134417;27;20126;-76
2022/01/12 04:03:15;;;;;;;166.48;66.75;;;3.50;99.90;;;;;;5134418;27;20046;-75
2022/01/12 04:08:18;;;;;;;158.10;63.45;;;3.50;99.90;;;;;;5134012;27;20047;-75
2022/01/12 04:08:26;;;;;;;191.80;68.97;;;3.50;99.90;;;;;;5134065;27;20078;-75
2022/01/12 04:11:00;;;;;;;211.48;70.70;;;3.50;99.90;;;;;;5134150;27;20105;-72
2022/01/12 04:13:28;;;;;;;205.70;68.82;;;3.50;99.90;;;;;;5134334;27;20539;-75
2022/01/12 04:16:00;;;;;;;206.77;70.72;;;3.50;99.90;;;;;;5133496;27;20079;-72
2022/01/12 04:18:26;;;;;;;199.88;69.78;;;3.50;99.90;;;;;;5134582;27;20047;-75
2022/01/12 04:20:52;;;;;;;229.95;74.18;;;3.50;99.90;;;;;;5134080;27;20083;-75
2022/01/12 04:23:20;;;;;;;205.75;71.35;;;3.60;99.90;;;;;;5132920;27;20050;-75
2022/01/12 04:26:00;;;;;;;219.10;73.97;;;3.60;99.90;;;;;;5133620;27;20095;-75
2022/01/12 04:28:29;;;;;;;198.82;69.78;;;3.60;99.90;;;;;;5133823;27;20058;-75
2022/01/12 04:30:56;;;;;;;218.82;71.97;;;3.60;99.90;;;;;;5134133;27;20043;-74
2022/01/12 04:33:22;;;;;;;213.13;72.65;;;3.60;99.90;;;;;;5133252;27;20507;-75
2022/01/12 04:35:53;;;;;;;227.95;72.88;;;3.60;99.90;;;;;;5133735;27;20042;-75
2022/01/12 04:38:21;;;;;;;249.35;76.20;;;3.60;99.90;;;;;;5131547;27;20411;-75
2022/01/12 04:40:48;;;;;;;230.13;75.13;;;3.60;99.90;;;;;;5133766;27;20035;-76
2022/01/12 04:43:14;;;;;;;282.77;80.88;;;3.60;99.90;;;;;;5132889;27;20035;-75
2022/01/12 04:50:49;;;;;;;226.70;73.20;;;3.60;99.90;;;;;;5133667;27;20047;-76
2022/01/12 04:53:18;;;;;;;241.95;75.35;;;3.60;99.90;;;;;;5133144;27;20096;-75
2022/01/12 04:55:43;;;;;;;269.10;76.82;;;3.60;99.90;;;;;;5133439;27;20132;-75
2022/01/12 04:58:10;;;;;;;257.85;77.20;;;3.60;99.90;;;;;;5132366;27;20507;-76
2022/01/12 05:00:37;;;;;;;250.60;78.93;;;3.60;99.90;;;;;;5133418;27;20087;-76
2022/01/12 05:13:47;;;;;;;257.38;80.55;;;3.60;99.90;;;;;;5133609;27;20082;-75
2022/01/12 05:16:13;;;;;;;265.48;79.78;;;3.60;99.90;;;;;;5132726;27;20096;-76
2022/01/12 05:18:40;;;;;;;280.02;80.85;;;3.60;99.90;;;;;;5132848;27;20043;-76
2022/01/12 05:21:07;;;;;;;307.25;84.38;;;3.70;99.90;;;;;;5130269;28;20118;-74
2022/01/12 05:23:33;;;;;;;266.10;82.50;;;3.70;99.90;;;;;;5133006;28;20040;-76
2022/01/12 05:26:00;;;;;;;263.55;80.60;;;3.80;99.90;;;;;;5132513;28;20483;-76
2022/01/12 05:28:26;;;;;;;320.17;84.85;;;3.70;99.90;;;;;;5132619;27;20080;-74
2022/01/12 05:30:54;;;;;;;271.00;80.07;;;3.70;99.90;;;;;;5132382;28;20046;-75
2022/01/12 05:33:22;;;;;;;249.80;80.00;;;3.70;99.90;;;;;;5132654;27;20046;-75
2022/01/12 05:35:48;;;;;;;256.35;79.32;;;3.70;99.90;;;;;;5133382;27;20053;-75
2022/01/12 05:38:15;;;;;;;253.48;78.30;;;3.70;99.90;;;;;;5132875;27;20122;-76
2022/01/12 05:40:46;;;;;;;245.23;77.93;;;3.60;99.90;;;;;;5133272;27;20051;-76
2022/01/12 05:43:20;;;;;;;271.90;80.85;;;3.70;99.90;;;;;;5131350;28;20438;-75
2022/01/12 05:45:46;;;;;;;288.23;80.75;;;3.60;99.90;;;;;;5133303;27;20047;-76
2022/01/12 05:50:42;;;;;;;224.30;76.47;;;3.60;99.90;;;;;;5133164;28;20050;-76
2022/01/12 05:53:09;;;;;;;299.60;82.75;;;3.60;99.90;;;;;;5132917;27;20139;-73
2022/01/12 05:55:35;;;;;;;248.82;77.25;;;3.60;99.90;;;;;;5132689;27;20509;-76
2022/01/12 05:58:00;;;;;;;317.15;82.43;;;3.60;99.90;;;;;;5133144;27;20139;-76
2022/01/12 06:00:28;;;;;;;236.77;76.75;;;3.60;99.90;;;;;;5132679;27;20050;-76
2022/01/12 06:02:54;;;;;;;207.63;75.22;;;3.60;99.90;;;;;;5133165;27;20126;-76
2022/01/12 06:05:22;;;;;;;227.73;76.05;;;3.60;99.90;;;;;;5132510;27;20104;-75
2022/01/12 06:07:49;;;;;;;237.95;76.05;;;3.60;99.90;;;;;;5132743;27;20053;-76
2022/01/12 06:10:16;;;;;;;233.02;76.40;;;3.60;99.90;;;;;;5132465;27;20043;-75
2022/01/12 06:12:42;;;;;;;241.77;76.72;;;3.60;99.90;;;;;;5133259;27;20437;-76
2022/01/12 06:15:09;;;;;;;272.80;79.90;;;3.60;99.90;;;;;;5134415;27;20057;-76
2022/01/12 06:17:35;;;;;;;255.02;79.43;;;3.60;99.90;;;;;;5136222;27;20083;-76
2022/01/12 06:20:03;;;;;;;222.00;74.85;;;3.60;99.90;;;;;;5136535;27;20043;-76
2022/01/12 06:22:29;;;;;;;240.15;77.82;;;3.60;99.90;;;;;;5136040;27;20085;-76
2022/01/12 06:24:56;;;;;;;246.98;77.25;;;3.70;99.90;;;;;;5136292;27;20078;-76
2022/01/12 06:27:23;;;;;;;238.32;74.70;;;3.60;99.90;;;;;;5136058;27;20095;-77
2022/01/12 06:32:35;;;;;;;215.65;73.30;;;3.60;99.90;;;;;;5113224;27;20039;-76
2022/01/12 06:35:00;;;;;;;223.48;73.57;;;3.60;99.90;;;;;;5136558;27;20175;-76
2022/01/12 06:37:26;;;;;;;221.65;72.47;;;3.60;99.90;;;;;;5135762;27;20062;-76
2022/01/12 06:39:52;;;;;;;240.25;74.60;;;3.60;99.90;;;;;;5136509;27;20043;-77
2022/01/12 06:42:18;;;;;;;223.23;75.07;;;3.60;99.90;;;;;;5135682;27;20055;-74
2022/01/12 06:44:43;;;;;;;225.07;74.90;;;3.60;99.90;;;;;;5135964;27;20046;-77
2022/01/12 06:47:09;;;;;;;215.10;75.90;;;3.60;99.90;;;;;;5136271;27;20159;-77
2022/01/12 06:49:35;;;;;;;213.95;70.82;;;3.60;99.90;;;;;;5135558;27;20035;-76
2022/01/12 06:52:01;;;;;;;206.48;71.70;;;3.60;99.90;;;;;;5136181;27;20150;-77
2022/01/12 06:54:27;;;;;;;216.98;73.72;;;3.60;99.90;;;;;;5135463;27;20039;-76
2022/01/12 06:56:53;;;;;;;201.35;72.28;;;3.60;99.90;;;;;;5135405;27;20493;-76
2022/01/12 06:59:19;;;;;;;197.57;69.32;;;3.70;99.90;;;;;;5135540;27;20075;-72
2022/01/12 07:01:44;;;;;;;199.70;70.88;;;3.60;99.90;;;;;;5135784;27;20043;-77
2022/01/12 07:04:11;;;;;;;198.77;71.15;;;3.60;99.90;;;;;;5136061;27;20082;-77
2022/01/12 07:06:37;;;;;;;193.32;70.43;;;3.60;99.90;;;;;;5134114;27;20043;-76
2022/01/12 07:09:04;;;;;;;190.98;70.82;;;3.60;99.90;;;;;;5135756;27;20043;-77
2022/01/12 07:11:30;;;;;;;212.27;72.60;;;3.60;99.90;;;;;;5134538;27;20125;-77
2022/01/12 07:13:56;;;;;;;197.00;70.22;;;3.60;99.90;;;;;;5133896;27;20100;-76
2022/01/12 07:16:22;;;;;;;191.23;70.72;;;3.70;99.90;;;;;;5135331;27;20052;-72
2022/01/12 07:18:48;;;;;;;197.25;70.55;;;3.60;99.90;;;;;;5135560;27;20392;-76
2022/01/12 07:21:13;;;;;;;186.48;68.40;;;3.70;99.90;;;;;;5135554;27;20126;-77
2022/01/12 07:23:39;;;;;;;187.40;68.50;;;3.60;99.90;;;;;;5134541;27;20043;-76
2022/01/12 07:26:05;;;;;;;187.75;67.90;;;3.60;99.90;;;;;;5134617;27;20042;-77
2022/01/12 07:28:31;;;;;;;175.00;66.78;;;3.70;99.90;;;;;;5134804;27;20122;-77
2022/01/12 07:30:57;;;;;;;178.45;66.05;;;3.60;99.90;;;;;;5135330;27;20082;-76
2022/01/12 07:33:25;;;;;;;160.45;63.95;;;3.60;99.90;;;;;;5134666;27;20049;-73
2022/01/12 07:35:51;;;;;;;174.57;65.72;;;3.50;99.90;;;;;;5134791;27;20047;-76
2022/01/12 07:38:17;;;;;;;171.32;64.80;;;3.50;99.90;;;;;;5134700;27;20083;-76
2022/01/12 07:40:43;;;;;;;168.63;64.47;;;3.50;99.90;;;;;;5134287;27;20070;-76
2022/01/12 07:43:09;;;;;;;181.23;64.40;;;3.50;99.90;;;;;;5135050;27;20039;-76
2022/01/12 07:45:36;;;;;;;169.18;63.42;;;3.50;99.90;;;;;;5159513;27;20055;-75
2022/01/12 07:48:02;;;;;;;176.82;66.60;;;3.60;99.90;;;;;;5132638;27;20075;-77
2022/01/12 07:50:28;;;;;;;176.30;65.30;;;3.50;99.90;;;;;;5134432;27;20043;-76
2022/01/12 07:52:54;;;;;;;178.80;64.97;;;3.50;99.90;;;;;;5134421;27;20478;-76
2022/01/12 07:55:21;;;;;;;177.38;63.97;;;3.50;99.90;;;;;;5134402;27;20095;-76
2022/01/12 07:57:48;;;;;;;162.20;61.03;;;3.50;99.90;;;;;;5133630;27;20049;-76
2022/01/12 08:00:15;;;;;;;202.18;68.75;;;3.50;99.90;;;;;;5134410;27;20054;-76
2022/01/12 08:02:41;;;;;;;175.85;63.70;;;3.50;99.90;;;;;;5133949;27;20560;-76
2022/01/12 08:05:08;;;;;;;167.38;63.30;;;3.50;99.90;;;;;;5134671;27;20082;-76
2022/01/12 08:07:36;;;;;;;164.27;61.60;;;3.60;99.90;;;;;;5133521;27;20078;-76
2022/01/12 08:10:03;;;;;;;178.30;64.22;;;3.60;99.90;;;;;;5133028;27;20126;-76
2022/01/12 08:12:29;;;;;;;168.52;63.08;;;3.60;99.90;;;;;;5134050;27;20612;-72
2022/01/12 08:14:55;;;;;;;157.38;61.53;;;3.60;99.90;;;;;;5134105;27;20126;-76
2022/01/12 08:17:20;;;;;;;175.82;62.50;;;3.60;99.90;;;;;;5133448;27;20361;-77
2022/01/12 08:19:46;;;;;;;180.55;64.40;;;3.60;99.90;;;;;;5133049;27;20050;-75
2022/01/12 08:22:12;;;;;;;163.52;61.15;;;3.70;99.90;;;;;;5133771;27;20082;-77
2022/01/12 08:24:37;;;;;;;162.18;59.88;;;3.70;99.90;;;;;;5133583;27;20058;-77
2022/01/12 08:27:03;;;;;;;154.80;60.05;;;3.80;99.90;;;;;;5133783;27;20449;-77
2022/01/12 08:29:30;;;;;;;157.02;59.47;;;3.70;99.90;;;;;;5133651;27;20047;-77
2022/01/12 08:31:56;;;;;;;153.07;58.15;;;3.80;99.90;;;;;;5133328;27;20043;-80
2022/01/12 08:34:22;;;;;;;146.30;58.67;;;3.80;99.90;;;;;;5133350;27;20043;-78
2022/01/12 08:36:48;;;;;;;145.82;57.72;;;3.90;99.90;;;;;;5123989;27;20698;-79
2022/01/12 08:39:13;;;;;;;149.13;58.17;;;3.80;99.90;;;;;;5127716;27;20043;-78
2022/01/12 08:41:39;;;;;;;137.13;55.78;;;3.90;99.90;;;;;;5129826;27;20159;-80
2022/01/12 08:44:07;;;;;;;147.73;57.42;;;3.90;99.90;;;;;;5130009;27;20042;-80
2022/01/12 08:46:33;;;;;;;144.25;56.40;;;3.90;99.90;;;;;;5130371;27;20444;-79
2022/01/12 08:48:59;;;;;;;130.38;56.05;;;3.90;99.90;;;;;;5130398;27;20099;-80
2022/01/12 08:51:25;;;;;;;122.03;54.50;;;3.90;99.90;;;;;;5129535;27;20043;-79
2022/01/12 08:53:51;;;;;;;125.88;52.67;;;4.00;99.90;;;;;;5130285;27;20384;-80
2022/01/12 08:56:17;;;;;;;130.32;53.70;;;3.90;99.90;;;;;;5130494;27;20046;-75
2022/01/12 08:58:42;;;;;;;118.40;51.00;;;3.90;99.90;;;;;;5130232;27;20350;-79
2022/01/12 09:01:10;;;;;;;115.57;50.92;;;3.90;99.90;;;;;;5130517;27;20074;-79
2022/01/12 09:03:37;;;;;;;109.40;50.78;;;3.90;99.90;;;;;;5129655;27;20042;-78
2022/01/12 09:06:05;;;;;;;126.78;52.70;;;3.90;99.90;;;;;;5130212;27;20039;-79
2022/01/12 09:08:31;;;;;;;121.97;52.17;;;3.90;99.90;;;;;;5130372;27;20047;-79
2022/01/12 09:10:56;;;;;;;115.30;51.47;;;3.90;99.90;;;;;;5128931;27;20495;-74
2022/01/12 09:13:22;;;;;;;116.45;50.25;;;4.00;99.90;;;;;;5130367;27;20043;-79
2022/01/12 09:15:48;;;;;;;123.40;51.17;;;4.10;99.90;;;;;;5129296;27;20159;-79
2022/01/12 09:18:15;;;;;;;110.88;50.05;;;4.20;99.90;;;;;;5129477;28;20104;-76
2022/01/12 09:20:41;;;;;;;107.60;49.47;;;4.30;99.90;;;;;;5129663;27;20126;-78
2022/01/12 09:23:07;;;;;;;105.00;47.13;;;4.30;99.90;;;;;;5130159;27;20496;-80
2022/01/12 09:25:35;;;;;;;107.38;47.67;;;4.40;99.90;;;;;;5130586;27;20042;-79
2022/01/12 09:28:02;;;;;;;103.50;45.72;;;4.40;99.90;;;;;;5129144;27;20047;-79
2022/01/12 09:30:29;;;;;;;100.07;46.40;;;4.50;99.90;;;;;;5130160;27;20047;-79
2022/01/12 09:32:55;;;;;;;94.43;42.72;;;4.50;99.90;;;;;;5129893;28;20092;-79
2022/01/12 09:35:21;;;;;;;98.43;43.95;;;4.60;99.90;;;;;;5129665;27;20047;-78
2022/01/12 09:37:47;;;;;;;93.65;42.85;;;4.60;99.90;;;;;;5129098;27;20055;-79
2022/01/12 09:40:13;;;;;;;93.50;42.40;;;4.70;99.90;;;;;;5130442;27;20047;-79
2022/01/12 09:42:44;;;;;;;88.90;42.92;;;4.70;99.90;;;;;;5128751;27;20122;-73
2022/01/12 09:45:14;;;;;;;93.03;42.33;;;4.80;99.90;;;;;;5130113;27;20187;-79
2022/01/12 09:47:40;;;;;;;;;;;4.90;99.90;;;;;;5129803;27;20046;-74
2022/01/12 09:50:06;;;;;;;88.25;40.10;;;4.90;99.90;;;;;;5132352;27;19919;-79
2022/01/12 09:52:32;;;;;;;76.07;39.42;;;4.90;99.90;;;;;;5137882;27;20484;-79
2022/01/12 09:54:58;;;;;;;75.03;37.80;;;5.00;99.90;;;;;;5133206;27;20046;-78
2022/01/12 09:57:24;;;;;;;75.60;37.15;;;5.00;99.90;;;;;;5130814;27;20050;-75
2022/01/12 09:59:49;;;;;;;76.53;33.95;;;5.10;99.90;;;;;;5134932;27;20034;-79
2022/01/12 10:02:17;;;;;;;72.07;32.65;;;5.20;99.90;;;;;;5136207;27;20053;-79
2022/01/12 10:04:43;;;;;;;65.85;29.80;;;5.30;99.90;;;;;;5135166;27;20043;-75
2022/01/12 10:07:11;;;;;;;56.05;26.17;;;5.30;99.90;;;;;;5133415;27;20130;-79
2022/01/12 10:09:45;;;;;;;48.60;21.75;;;5.40;99.90;;;;;;5134015;27;20039;-78
2022/01/12 10:12:21;;;;;;;43.53;17.23;;;5.40;99.90;;;;;;5133649;27;21526;-79
2022/01/12 10:15:01;;;;;;;36.88;14.93;;;5.40;99.90;;;;;;5143991;27;20051;-78
2022/01/12 10:17:33;;;;;;;31.70;14.82;;;5.40;99.90;;;;;;5133940;27;20118;-79
2022/01/12 10:20:19;;;;;;;33.80;14.15;;;5.40;99.90;;;;;;5132678;27;20134;-76
2022/01/12 10:23:09;;;;;;;31.08;12.48;;;5.40;99.90;;;;;;5134375;27;20392;-74
2022/01/12 10:25:36;;;;;;;29.67;12.07;;;5.40;99.90;;;;;;5133395;27;20051;-77
2022/01/12 10:28:21;;;;;;;29.67;11.52;;;5.50;99.90;;;;;;5131806;27;20506;-78
2022/01/12 10:30:56;;;;;;;29.10;11.70;;;5.50;99.90;;;;;;5132511;27;20039;-78
2022/01/12 10:33:27;;;;;;;26.20;12.02;;;5.50;99.90;;;;;;5131997;27;20047;-79
2022/01/12 10:35:58;;;;;;;31.30;12.30;;;5.60;99.90;;;;;;5132415;27;20043;-78
2022/01/12 10:38:25;;;;;;;27.67;12.40;;;5.50;99.90;;;;;;5137374;27;20646;-79
2022/01/12 10:40:57;;;;;;;28.80;13.68;;;5.60;99.90;;;;;;5132605;27;20118;-79
2022/01/12 10:43:37;;;;;;;26.70;13.20;;;5.60;99.90;;;;;;5132960;27;20043;-79
2022/01/12 10:46:11;;;;;;;33.53;14.27;;;5.60;99.90;;;;;;5132287;27;20043;-74
2022/01/12 10:48:50;;;;;;;31.50;13.85;;;5.60;99.90;;;;;;5133701;27;20378;-79
2022/01/12 10:51:20;;;;;;;32.97;15.05;;;5.60;99.90;;;;;;5133140;27;20035;-79
2022/01/12 10:53:50;;;;;;;32.53;14.00;;;5.60;99.90;;;;;;5127219;27;20031;-79
2022/01/12 10:56:19;;;;;;;30.52;14.00;;;5.70;99.90;;;;;;5132776;27;20031;-78
2022/01/12 10:58:46;;;;;;;31.90;14.05;;;5.70;99.90;;;;;;5132825;27;20423;-79
2022/01/12 11:01:14;;;;;;;27.23;13.50;;;5.70;99.90;;;;;;5132446;27;20047;-79
2022/01/12 11:03:41;;;;;;;26.90;14.07;;;5.80;99.90;;;;;;5132672;27;20088;-79
2022/01/12 11:06:08;;;;;;;26.83;12.48;;;5.90;99.90;;;;;;5131964;27;20047;-78
2022/01/12 11:08:35;;;;;;;23.35;11.32;;;5.90;99.90;;;;;;5132485;27;20114;-78
2022/01/12 11:11:01;;;;;;;28.27;12.35;;;5.90;99.90;;;;;;5131760;27;20361;-78
2022/01/12 11:13:28;;;;;;;26.02;12.30;;;6.00;99.90;;;;;;5132230;27;20050;-79
2022/01/12 11:15:56;;;;;;;25.30;11.20;;;6.10;99.90;;;;;;5132569;27;20050;-78
2022/01/12 11:18:25;;;;;;;23.90;12.13;;;6.10;99.90;;;;;;5131810;27;20050;-78
2022/01/12 11:20:53;;;;;;;24.98;12.18;;;6.10;99.90;;;;;;5132212;27;20077;-73
2022/01/12 11:23:20;;;;;;;27.05;12.20;;;6.10;99.90;;;;;;5132693;27;20532;-79
2022/01/12 11:25:52;;;;;;;27.52;11.90;;;6.00;99.90;;;;;;5132214;27;20078;-79
2022/01/12 11:28:37;;;;;;;23.58;12.93;;;6.00;99.90;;;;;;5131723;27;20100;-79
2022/01/12 11:31:04;;;;;;;25.33;12.23;;;6.00;99.90;;;;;;5131785;27;20043;-79
2022/01/12 11:33:33;;;;;;;22.02;11.88;;;6.00;99.90;;;;;;5132453;27;20061;-79
2022/01/12 11:36:23;;;;;;;21.13;11.45;;;6.00;99.90;;;;;;5156489;27;20047;-79
2022/01/12 11:38:58;;;;;;;26.60;11.82;;;6.00;99.90;;;;;;5114636;28;20059;-79
2022/01/12 11:41:28;;;;;;;23.45;10.82;;;6.10;99.90;;;;;;5114955;28;20130;-79
2022/01/12 11:44:05;;;;;;;20.83;11.50;;;6.10;99.90;;;;;;5114119;28;20480;-75
2022/01/12 11:46:46;;;;;;;25.88;11.20;;;6.10;99.90;;;;;;5118664;27;20039;-80
2022/01/12 11:49:23;;;;;;;23.73;10.32;;;6.10;99.90;;;;;;5116812;27;20142;-79
2022/01/12 11:51:48;;;;;;;19.65;10.75;;;6.10;99.90;;;;;;5135330;27;20047;-78
2022/01/12 11:54:18;;;;;;;25.30;10.98;;;6.10;99.90;;;;;;5134613;27;20443;-79
2022/01/12 11:57:02;;;;;;;24.13;11.02;;;6.20;99.90;;;;;;5134784;27;20133;-82
2022/01/12 11:59:30;;;;;;;30.35;12.10;;;6.20;99.90;;;;;;5114540;28;20044;-81
2022/01/12 12:02:14;;;;;;;22.00;11.52;;;6.30;99.90;;;;;;5114426;28;20079;-81
2022/01/12 12:04:55;;;;;;;28.85;11.65;;;6.40;99.90;;;;;;5114555;28;20494;-76
2022/01/12 12:07:25;;;;;;;22.65;9.55;;;6.50;99.90;;;;;;5115402;27;20101;-77
2022/01/12 12:09:57;;;;;;;20.67;9.13;;;6.50;99.90;;;;;;5114151;27;20059;-81
2022/01/12 12:12:34;;;;;;;19.85;9.30;;;6.50;99.90;;;;;;5130434;27;20486;-81
2022/01/12 12:15:07;;;;;;;21.25;10.07;;;6.50;99.90;;;;;;5134092;27;20050;-75
2022/01/12 12:17:35;;;;;;;21.15;10.00;;;6.40;99.90;;;;;;5132156;27;20066;-81
2022/01/12 12:20:03;;;;;;;23.85;10.77;;;6.30;99.90;;;;;;5130707;27;20043;-74
2022/01/12 12:22:34;;;;;;;27.50;11.45;;;6.30;99.90;;;;;;5113968;28;20383;-81
2022/01/12 12:25:04;;;;;;;24.42;11.82;;;6.30;99.90;;;;;;5113546;28;20126;-73
2022/01/12 12:27:31;;;;;;;24.50;11.65;;;6.30;99.90;;;;;;5132636;27;20043;-81
2022/01/12 12:29:58;;;;;;;24.00;10.93;;;6.30;99.90;;;;;;5134195;27;20469;-79
2022/01/12 12:32:41;;;;;;;23.48;10.32;;;6.30;99.90;;;;;;5133436;27;20039;-80
2022/01/12 12:35:14;;;;;;;23.17;10.93;;;6.20;99.90;;;;;;5126324;27;20115;-80
2022/01/12 12:37:53;;;;;;;23.55;11.23;;;6.20;99.90;;;;;;5118567;27;20069;-80
2022/01/12 12:40:29;;;;;;;22.05;11.50;;;6.10;99.90;;;;;;5123241;27;20097;-83
2022/01/12 12:43:03;;;;;;;23.17;11.38;;;6.10;99.90;;;;;;5117520;27;20043;-80
2022/01/12 12:45:49;;;;;;;23.05;10.82;;;6.10;99.90;;;;;;5113625;28;20062;-78
2022/01/12 12:48:17;;;;;;;29.80;11.48;;;6.20;99.90;;;;;;5112867;28;20108;-80
2022/01/12 12:50:44;;;;;;;24.88;11.50;;;6.20;99.90;;;;;;5117204;27;20043;-80
2022/01/12 12:53:11;;;;;;;26.17;11.13;;;6.30;99.90;;;;;;5133080;27;20073;-80
2022/01/12 12:55:40;;;;;;;25.75;10.82;;;6.30;99.90;;;;;;5133552;27;20499;-80
2022/01/12 12:58:06;;;;;;;25.17;10.20;;;6.40;99.90;;;;;;5132873;27;20088;-78
2022/01/12 13:00:33;;;;;;;24.23;11.18;;;6.40;99.90;;;;;;5133817;27;20054;-80
2022/01/12 13:03:01;;;;;;;25.77;10.45;;;6.50;99.90;;;;;;5133767;27;20061;-80
2022/01/12 13:05:35;;;;;;;23.67;11.00;;;6.50;99.90;;;;;;5133122;27;20043;-80
2022/01/12 13:08:01;;;;;;;25.13;11.05;;;6.50;99.90;;;;;;5133735;27;20122;-80
2022/01/12 13:10:30;;;;;;;24.20;11.35;;;6.40;99.90;;;;;;5133066;27;20505;-79
2022/01/12 13:13:08;;;;;;;23.33;10.30;;;6.40;99.90;;;;;;5132866;27;20495;-80
2022/01/12 13:15:38;;;;;;;21.80;9.98;;;6.50;99.90;;;;;;5133470;27;20047;-80
2022/01/12 13:18:19;;;;;;;22.23;10.45;;;6.40;99.90;;;;;;5133537;27;20043;-80
2022/01/12 13:23:43;;;;;;;22.25;10.77;;;6.40;99.90;;;;;;5132974;27;20088;-79
2022/01/12 13:26:15;;;;;;;22.83;10.48;;;6.50;99.90;;;;;;5137525;27;20055;-73
2022/01/12 13:28:44;;;;;;;26.00;11.25;;;6.50;99.90;;;;;;5137493;27;20425;-80
2022/01/12 13:31:12;;;;;;;24.77;10.98;;;6.50;99.90;;;;;;5137325;27;20054;-73
2022/01/12 13:33:40;;;;;;;21.45;12.10;;;6.60;99.90;;;;;;5137588;27;20481;-80
2022/01/12 13:36:23;;;;;;;22.77;10.93;;;6.60;99.90;;;;;;5137624;27;20039;-80
2022/01/12 13:39:04;;;;;;;20.38;11.05;;;6.60;99.90;;;;;;5136749;27;20063;-80
2022/01/12 13:41:35;;;;;;;23.30;11.25;;;6.60;99.90;;;;;;5136798;27;20051;-80
2022/01/12 13:44:10;;;;;;;22.42;11.90;;;6.50;99.90;;;;;;5137734;27;20039;-81
2022/01/12 13:46:43;;;;;;;23.52;11.73;;;6.50;99.90;;;;;;5136784;27;20111;-80
2022/01/12 13:51:52;;;;;;;22.80;11.75;;;6.40;99.90;;;;;;5137523;27;20130;-80
2022/01/12 13:54:18;;;;;;;24.52;11.55;;;6.30;99.90;;;;;;5123043;27;20071;-79
2022/01/12 13:56:51;;;;;;;23.85;11.88;;;6.30;99.90;;;;;;5136042;27;20098;-79
2022/01/12 13:59:18;;;;;;;22.35;12.35;;;6.30;99.90;;;;;;5136709;27;20479;-79
2022/01/12 14:01:45;;;;;;;25.23;12.77;;;6.20;99.90;;;;;;5136729;27;20079;-80
2022/01/12 14:04:21;;;;;;;26.00;12.73;;;6.20;99.90;;;;;;5136882;27;20043;-80
2022/01/12 14:06:51;;;;;;;26.60;11.73;;;6.20;99.90;;;;;;5137265;27;20043;-79